Bookmark and Share
Track history (hours):
 

Shin Mei Maru

Last reported at 2014-Apr-17 06:21 UTC. Time now 2014-Apr-17 09:44 UTC.
Position N 34°57' E 139°26'.

Length 160 m; draft 6.8 m.

Type: Cargo ship. MMSI: 431100922.

NotesDate/timePositionNaut miles runAvg speedWind from/ knotsBaromVisibWave heightAir tempDewpointWater temp
2014-Apr-17 06:21N 34°57' E 139°26'1417.5
2014-Apr-17 05:33N 35°04' E 139°40'1414.3
2014-Apr-17 04:34N 35°18' E 139°44'1515.0
2014-Apr-17 03:33N 35°32' E 139°51'7 7.0
2014-Apr-17 02:30N 35°38' E 139°46'0 0.0
2014-Apr-17 01:33N 35°38' E 139°46'0 0.0
2014-Apr-17 00:33N 35°38' E 139°46'0 0.0
2014-Apr-16 23:33N 35°38' E 139°46'0 0.0
2014-Apr-16 22:27N 35°38' E 139°46'5 6.0
2014-Apr-16 21:33N 35°34' E 139°50'1414.0
2014-Apr-16 20:32N 35°20' E 139°44'1414.1
2014-Apr-16 19:34N 35°06' E 139°45'1515.4
2014-Apr-16 18:33N 34°51' E 139°50'1615.8
2014-Apr-16 17:34N 34°57' E 140°08'1716.8
2014-Apr-16 16:34N 35°05' E 140°25'1816.9
2014-Apr-16 15:31N 35°19' E 140°39'1717.1
2014-Apr-16 14:33N 35°32' E 140°50'1817.6
2014-Apr-16 13:34N 35°49' E 140°57'1818.5
2014-Apr-16 12:34N 36°07' E 141°02'  
2014-Apr-12 17:23N 35°40' E 141°00'1619.0
2014-Apr-12 16:33N 35°27' E 140°49'1919.5
2014-Apr-12 15:33N 35°12' E 140°34'1818.4
2014-Apr-12 14:33N 35°00' E 140°17'1818.4
2014-Apr-12 13:33N 34°51' E 139°57'1514.8
2014-Apr-12 12:33N 35°01' E 139°43'1616.2
2014-Apr-12 11:33N 35°17' E 139°45'1414.1
2014-Apr-12 10:34N 35°30' E 139°51'9 8.8
2014-Apr-12 09:33N 35°38' E 139°46'0 0.0
2014-Apr-12 08:29N 35°38' E 139°46'0 0.0
2014-Apr-12 07:23N 35°38' E 139°46'0 0.0
2014-Apr-12 06:26N 35°38' E 139°46'0 0.0
2014-Apr-12 05:23N 35°38' E 139°46'2 2.0
2014-Apr-12 04:33N 35°36' E 139°46'1413.6
2014-Apr-12 03:34N 35°23' E 139°46'1312.8
2014-Apr-12 02:33N 35°10' E 139°46'24916.6
2014-Apr-11 11:32N 33°53' E 134°59'2020.6
2014-Apr-11 10:33N 34°13' E 134°59'1818.4
2014-Apr-11 09:33N 34°29' E 135°11'1414.2
2014-Apr-11 08:33N 34°37' E 135°25'0 0.0
2014-Apr-11 07:24N 34°37' E 135°25'0 0.0
2014-Apr-11 06:12N 34°37' E 135°25'0 0.0
2014-Apr-11 05:18N 34°37' E 135°25'0 0.0
2014-Apr-11 02:24N 34°37' E 135°25'1 0.7
2014-Apr-11 00:34N 34°36' E 135°23'1817.8
2014-Apr-10 23:33N 34°25' E 135°06'1717.2
2014-Apr-10 22:34N 34°09' E 134°59'22614.1
2014-Apr-10 06:33N 34°57' E 139°27'1717.2
2014-Apr-10 05:33N 35°07' E 139°44'1413.8
2014-Apr-10 04:33N 35°21' E 139°42'1414.2
2014-Apr-10 03:33N 35°35' E 139°48'4 3.7
2014-Apr-10 02:34N 35°38' E 139°46'0 0.0
2014-Apr-10 01:28N 35°38' E 139°46'0 0.0
2014-Apr-10 00:22N 35°38' E 139°46'0 0.0
2014-Apr-09 23:31N 35°38' E 139°46'0 0.0
2014-Apr-09 22:31N 35°38' E 139°46'2 2.4
2014-Apr-09 21:33N 35°36' E 139°47'1313.4
2014-Apr-09 20:33N 35°22' E 139°45'1312.7
2014-Apr-09 19:33N 35°10' E 139°47'1616.4
2014-Apr-09 18:33N 34°53' E 139°48'1717.0
2014-Apr-09 17:33N 34°56' E 140°08'2018.2
2014-Apr-09 16:28N 35°07' E 140°29'1817.6
2014-Apr-09 15:28N 35°21' E 140°41'1717.9
2014-Apr-09 14:30N 35°35' E 140°54'  

Dump ship's entire track history

sailing weather and tide predictions

Shin Mei Maru — JG5617 — position and weather